Time;durP1;ratioP1;P1;durP2;ratioP2;P2;SDS_P1;SDS_P2;PMS_P1;PMS_P2;Temp;Humidity;BMP_temperature;BMP_pressure;BME280_temperature;BME280_humidity;BME280_pressure;Samples;Min_cycle;Max_cycle;Signal;HPM_P1;HPM_P2
2023/10/31 00:01:24;;;;;;;5.28;3.70;;;;;;;;;;5102167;28;20035;-82
2023/10/31 00:03:50;;;;;;;5.97;3.72;;;;;;;;;;5118523;28;20035;-83
2023/10/31 00:06:16;;;;;;;5.93;3.70;;;;;;;;;;5119153;28;20494;-83
2023/10/31 00:08:42;;;;;;;7.18;3.63;;;;;;;;;;5120523;28;20164;-82
2023/10/31 00:11:08;;;;;;;5.25;3.33;;;;;;;;;;5120657;28;20040;-82
2023/10/31 00:13:34;;;;;;;4.47;3.22;;;;;;;;;;5121032;28;20038;-82
2023/10/31 00:16:00;;;;;;;4.55;3.25;;;;;;;;;;5120169;28;20106;-82
2023/10/31 00:18:26;;;;;;;4.95;3.58;;;;;;;;;;5117593;28;20050;-82
2023/10/31 00:20:52;;;;;;;5.97;3.70;;;;;;;;;;5120991;28;20122;-82
2023/10/31 00:23:18;;;;;;;5.18;3.53;;;;;;;;;;5118716;28;20466;-82
2023/10/31 00:25:44;;;;;;;4.30;3.25;;;;;;;;;;5120364;28;20103;-82
2023/10/31 00:28:10;;;;;;;4.93;3.65;;;;;;;;;;5120116;28;20091;-82
2023/10/31 00:30:36;;;;;;;5.28;3.67;;;;;;;;;;5110215;28;20032;-83
2023/10/31 00:33:02;;;;;;;5.78;3.78;;;;;;;;;;5117837;28;20043;-83
2023/10/31 00:35:28;;;;;;;5.20;4.07;;;;;;;;;;5101079;28;20039;-83
2023/10/31 00:37:55;;;;;;;5.90;3.90;;;;;;;;;;5119309;28;20040;-83
2023/10/31 00:40:21;;;;;;;5.60;4.05;;;;;;;;;;5117281;28;20043;-82
2023/10/31 00:42:47;;;;;;;5.40;3.47;;;;;;;;;;5117924;28;20042;-82
2023/10/31 00:45:13;;;;;;;5.47;4.05;;;;;;;;;;5094642;28;20035;-82
2023/10/31 00:47:39;;;;;;;3.25;2.67;;;;;;;;;;5116110;28;20035;-82
2023/10/31 00:50:05;;;;;;;4.50;2.17;;;;;;;;;;5101915;28;20043;-82
2023/10/31 00:52:31;;;;;;;2.38;1.65;;;;;;;;;;5118293;28;20127;-82
2023/10/31 00:54:58;;;;;;;1.42;1.27;;;;;;;;;;5119052;28;20043;-81
2023/10/31 00:57:24;;;;;;;1.67;0.98;;;;;;;;;;5118353;28;20054;-82
2023/10/31 00:59:50;;;;;;;1.63;0.60;;;;;;;;;;5117769;28;20047;-82
2023/10/31 01:02:15;;;;;;;0.70;0.60;;;;;;;;;;5105165;27;20081;-82
2023/10/31 01:04:42;;;;;;;1.00;0.68;;;;;;;;;;5120075;28;20047;-82
2023/10/31 01:07:11;;;;;;;1.25;0.63;;;;;;;;;;5115239;28;20178;-82
2023/10/31 01:09:37;;;;;;;0.77;0.60;;;;;;;;;;5120173;28;20080;-82
2023/10/31 01:12:04;;;;;;;0.40;0.40;;;;;;;;;;5117661;28;20051;-82
2023/10/31 01:14:29;;;;;;;0.47;0.47;;;;;;;;;;5119885;28;20043;-82
2023/10/31 01:16:55;;;;;;;0.50;0.40;;;;;;;;;;5118245;28;20040;-82
2023/10/31 01:19:21;;;;;;;0.30;0.30;;;;;;;;;;5117004;28;20039;-82
2023/10/31 01:21:47;;;;;;;0.55;0.30;;;;;;;;;;5099925;28;20039;-82
2023/10/31 01:24:16;;;;;;;0.88;0.47;;;;;;;;;;5118459;28;20032;-82
2023/10/31 01:26:42;;;;;;;1.85;0.60;;;;;;;;;;5118850;28;20478;-81
2023/10/31 01:29:08;;;;;;;0.57;0.57;;;;;;;;;;5099037;28;20043;-82
2023/10/31 01:31:36;;;;;;;0.70;0.40;;;;;;;;;;5115568;28;20393;-81
2023/10/31 01:34:02;;;;;;;0.80;0.50;;;;;;;;;;5114176;28;20058;-81
2023/10/31 01:36:28;;;;;;;1.55;0.50;;;;;;;;;;5115492;28;20035;-81
2023/10/31 01:38:54;;;;;;;0.38;0.30;;;;;;;;;;5113798;28;20038;-82
2023/10/31 01:41:20;;;;;;;0.63;0.30;;;;;;;;;;5116274;28;20057;-81
2023/10/31 01:43:46;;;;;;;0.10;0.10;;;;;;;;;;5116597;28;20034;-81
2023/10/31 01:46:12;;;;;;;0.28;0.25;;;;;;;;;;5112057;28;20075;-81
2023/10/31 01:48:38;;;;;;;0.20;0.20;;;;;;;;;;5115379;28;20176;-80
2023/10/31 01:51:05;;;;;;;0.50;0.40;;;;;;;;;;5114551;28;20047;-80
2023/10/31 01:53:33;;;;;;;0.10;0.10;;;;;;;;;;5116272;28;20414;-81
2023/10/31 01:56:01;;;;;;;0.50;0.17;;;;;;;;;;5114013;28;20498;-80
2023/10/31 01:58:30;;;;;;;2.08;0.30;;;;;;;;;;5115765;28;20048;-80
2023/10/31 02:00:56;;;;;;;0.50;0.20;;;;;;;;;;5115826;28;20057;-81
2023/10/31 02:03:22;;;;;;;1.15;0.55;;;;;;;;;;5097443;28;20123;-80
2023/10/31 02:05:48;;;;;;;0.43;0.30;;;;;;;;;;5116020;28;20036;-81
2023/10/31 02:08:14;;;;;;;0.40;0.30;;;;;;;;;;5111278;28;20039;-81
2023/10/31 02:10:40;;;;;;;0.68;0.30;;;;;;;;;;5113363;28;20061;-81
2023/10/31 02:13:13;;;;;;;2.35;0.50;;;;;;;;;;5115985;28;20108;-83
2023/10/31 02:15:39;;;;;;;1.45;0.40;;;;;;;;;;5119547;28;20039;-82
2023/10/31 02:18:05;;;;;;;0.70;0.30;;;;;;;;;;5131901;28;20044;-82
2023/10/31 02:20:31;;;;;;;2.15;0.40;;;;;;;;;;5130921;28;20047;-82
2023/10/31 02:22:57;;;;;;;4.00;0.52;;;;;;;;;;5131480;28;20048;-82
2023/10/31 02:25:23;;;;;;;1.38;0.40;;;;;;;;;;5129175;28;20042;-82
2023/10/31 02:27:49;;;;;;;1.38;0.32;;;;;;;;;;5129174;28;20032;-83
2023/10/31 02:30:15;;;;;;;2.92;0.60;;;;;;;;;;5130095;28;20036;-83
2023/10/31 02:32:41;;;;;;;1.63;0.38;;;;;;;;;;5130069;28;20044;-82
2023/10/31 02:35:08;;;;;;;1.40;0.40;;;;;;;;;;5119532;28;20395;-82
2023/10/31 02:37:34;;;;;;;1.27;0.55;;;;;;;;;;5108240;28;20047;-82
2023/10/31 02:40:00;;;;;;;1.23;0.40;;;;;;;;;;5118878;28;20058;-82
2023/10/31 02:42:27;;;;;;;2.72;0.50;;;;;;;;;;5120071;28;20046;-82
2023/10/31 02:44:53;;;;;;;0.88;0.55;;;;;;;;;;5119588;28;20124;-82
2023/10/31 02:47:19;;;;;;;1.35;0.50;;;;;;;;;;5119305;28;20114;-82
2023/10/31 02:49:45;;;;;;;1.38;0.55;;;;;;;;;;5112073;28;20019;-82
2023/10/31 02:52:11;;;;;;;1.38;0.52;;;;;;;;;;5118973;28;20130;-82
2023/10/31 02:54:37;;;;;;;1.92;0.55;;;;;;;;;;5117263;28;20042;-82
2023/10/31 02:57:04;;;;;;;1.92;0.73;;;;;;;;;;5119629;28;20097;-82
2023/10/31 02:59:30;;;;;;;1.27;0.68;;;;;;;;;;5120081;28;20036;-83
2023/10/31 03:01:56;;;;;;;1.63;1.10;;;;;;;;;;5122630;28;20042;-84
2023/10/31 03:04:22;;;;;;;3.92;0.80;;;;;;;;;;5120109;28;20057;-83
2023/10/31 03:06:48;;;;;;;0.80;0.80;;;;;;;;;;5127349;28;20039;-83
2023/10/31 03:09:14;;;;;;;2.17;1.40;;;;;;;;;;5124917;28;20061;-84
2023/10/31 03:11:40;;;;;;;1.70;0.88;;;;;;;;;;5125380;28;20569;-86
2023/10/31 03:14:06;;;;;;;3.63;0.90;;;;;;;;;;5108277;28;20050;-83
2023/10/31 03:16:32;;;;;;;2.50;1.15;;;;;;;;;;5125307;28;20027;-83
2023/10/31 03:18:59;;;;;;;1.38;1.13;;;;;;;;;;5124922;28;20043;-83
2023/10/31 03:21:25;;;;;;;2.40;0.98;;;;;;;;;;5126116;28;20043;-84
2023/10/31 03:23:53;;;;;;;1.48;0.98;;;;;;;;;;5124339;28;20058;-82
2023/10/31 03:26:19;;;;;;;2.95;1.10;;;;;;;;;;5125590;28;20039;-84
2023/10/31 03:28:45;;;;;;;2.65;1.20;;;;;;;;;;5126574;28;20040;-83
2023/10/31 03:31:12;;;;;;;1.60;1.20;;;;;;;;;;5125727;28;20051;-83
2023/10/31 03:33:38;;;;;;;1.90;1.10;;;;;;;;;;5123917;28;20126;-83
2023/10/31 03:36:05;;;;;;;1.77;1.13;;;;;;;;;;5122264;28;20039;-84
2023/10/31 03:38:31;;;;;;;1.23;1.13;;;;;;;;;;5120240;28;20042;-84
2023/10/31 03:40:57;;;;;;;2.50;0.90;;;;;;;;;;5123536;28;20449;-85
2023/10/31 03:43:23;;;;;;;3.55;1.20;;;;;;;;;;5124591;28;20061;-83
2023/10/31 03:45:49;;;;;;;1.55;1.30;;;;;;;;;;5123068;28;20123;-84
2023/10/31 03:48:16;;;;;;;2.60;1.58;;;;;;;;;;5117078;28;20040;-83
2023/10/31 03:50:43;;;;;;;1.85;1.10;;;;;;;;;;5123876;28;20413;-84
2023/10/31 03:53:09;;;;;;;3.15;1.88;;;;;;;;;;5122234;28;20057;-83
2023/10/31 03:55:35;;;;;;;1.98;1.20;;;;;;;;;;5122139;28;20368;-85
2023/10/31 03:58:01;;;;;;;1.38;1.02;;;;;;;;;;5121644;28;20058;-83
2023/10/31 04:00:27;;;;;;;3.03;1.33;;;;;;;;;;5123535;28;20482;-84
2023/10/31 04:02:53;;;;;;;2.67;1.58;;;;;;;;;;5120941;28;20044;-83
2023/10/31 04:05:19;;;;;;;1.15;0.70;;;;;;;;;;5122829;28;20371;-84
2023/10/31 04:07:46;;;;;;;2.75;0.90;;;;;;;;;;5122814;28;20027;-84
2023/10/31 04:10:12;;;;;;;1.00;0.65;;;;;;;;;;5119405;28;20040;-82
2023/10/31 04:12:39;;;;;;;1.90;0.40;;;;;;;;;;5113933;28;20093;-82
2023/10/31 04:15:05;;;;;;;0.47;0.30;;;;;;;;;;5120039;28;20451;-82
2023/10/31 04:17:31;;;;;;;1.10;0.32;;;;;;;;;;5120671;28;20092;-82
2023/10/31 04:19:57;;;;;;;0.25;0.20;;;;;;;;;;5120744;28;20042;-82
2023/10/31 04:22:23;;;;;;;0.82;0.50;;;;;;;;;;5117663;28;20553;-82
2023/10/31 04:24:49;;;;;;;1.40;0.52;;;;;;;;;;5119284;28;20095;-82
2023/10/31 04:27:15;;;;;;;3.58;0.93;;;;;;;;;;5113400;28;20036;-82
2023/10/31 04:29:41;;;;;;;1.95;0.90;;;;;;;;;;5118808;28;20031;-82
2023/10/31 04:32:07;;;;;;;1.58;0.90;;;;;;;;;;5119022;28;20061;-82
2023/10/31 04:34:33;;;;;;;0.70;0.60;;;;;;;;;;5121083;28;20047;-83
2023/10/31 04:36:59;;;;;;;1.65;0.85;;;;;;;;;;5121856;28;20051;-83
2023/10/31 04:39:25;;;;;;;2.35;0.65;;;;;;;;;;5123301;28;20039;-83
2023/10/31 04:41:51;;;;;;;1.40;0.55;;;;;;;;;;5124414;28;20058;-83
2023/10/31 04:44:17;;;;;;;0.57;0.57;;;;;;;;;;5131085;28;20053;-82
2023/10/31 04:46:43;;;;;;;0.98;0.70;;;;;;;;;;5131467;28;20051;-83
2023/10/31 04:49:10;;;;;;;2.70;0.73;;;;;;;;;;5131028;28;20043;-84
2023/10/31 04:51:36;;;;;;;2.38;0.98;;;;;;;;;;5116691;28;20057;-83
2023/10/31 04:54:02;;;;;;;1.35;0.60;;;;;;;;;;5118754;28;20051;-82
2023/10/31 04:56:28;;;;;;;1.17;0.60;;;;;;;;;;5119114;28;20439;-84
2023/10/31 04:58:54;;;;;;;0.50;0.40;;;;;;;;;;5120883;28;20063;-83
2023/10/31 05:01:20;;;;;;;1.00;0.40;;;;;;;;;;5121515;28;20031;-84
2023/10/31 05:03:46;;;;;;;1.98;0.65;;;;;;;;;;5120372;28;20106;-82
2023/10/31 05:06:12;;;;;;;0.90;0.40;;;;;;;;;;5119622;28;20040;-83
2023/10/31 05:08:38;;;;;;;0.45;0.40;;;;;;;;;;5119687;28;20035;-83
2023/10/31 05:11:04;;;;;;;1.55;0.60;;;;;;;;;;5116508;28;20543;-83
2023/10/31 05:13:30;;;;;;;1.23;0.60;;;;;;;;;;5120698;28;20061;-83
2023/10/31 05:15:57;;;;;;;3.47;0.70;;;;;;;;;;5120094;28;20130;-83
2023/10/31 05:18:24;;;;;;;0.95;0.32;;;;;;;;;;5117467;28;20036;-82
2023/10/31 05:20:50;;;;;;;2.38;0.40;;;;;;;;;;5149034;27;20048;-83
2023/10/31 05:23:16;;;;;;;1.25;0.40;;;;;;;;;;5118602;28;20518;-83
2023/10/31 05:25:42;;;;;;;0.40;0.25;;;;;;;;;;5118290;28;20035;-82
2023/10/31 05:28:08;;;;;;;0.85;0.32;;;;;;;;;;5116641;28;20052;-83
2023/10/31 05:30:33;;;;;;;0.57;0.30;;;;;;;;;;5120037;28;20035;-84
2023/10/31 05:33:00;;;;;;;0.93;0.43;;;;;;;;;;5119917;28;20892;-84
2023/10/31 05:35:25;;;;;;;0.75;0.50;;;;;;;;;;5113450;28;20064;-85
2023/10/31 05:37:51;;;;;;;0.73;0.52;;;;;;;;;;5119255;28;20032;-83
2023/10/31 05:40:17;;;;;;;2.60;0.50;;;;;;;;;;5117623;28;20057;-83
2023/10/31 05:42:43;;;;;;;1.75;0.40;;;;;;;;;;5101254;28;20055;-83
2023/10/31 05:45:10;;;;;;;2.75;0.50;;;;;;;;;;5099096;28;20044;-85
2023/10/31 05:47:36;;;;;;;2.80;0.32;;;;;;;;;;5119562;28;20099;-83
2023/10/31 05:50:02;;;;;;;0.90;0.35;;;;;;;;;;5119571;28;20074;-84
2023/10/31 05:52:29;;;;;;;1.42;0.50;;;;;;;;;;5121075;28;20103;-84
2023/10/31 05:54:55;;;;;;;1.13;0.50;;;;;;;;;;5117474;28;20082;-84
2023/10/31 05:57:21;;;;;;;1.60;0.47;;;;;;;;;;5118277;28;20068;-84
2023/10/31 05:59:47;;;;;;;0.98;0.35;;;;;;;;;;5114288;28;20599;-85
2023/10/31 06:02:14;;;;;;;0.40;0.40;;;;;;;;;;5117252;28;20047;-83
2023/10/31 06:04:40;;;;;;;1.17;0.70;;;;;;;;;;5118323;28;20046;-84
2023/10/31 06:07:06;;;;;;;2.63;0.70;;;;;;;;;;5115017;28;20043;-83
2023/10/31 06:09:35;;;;;;;1.48;0.73;;;;;;;;;;5116171;28;20043;-83
2023/10/31 06:12:01;;;;;;;0.90;0.52;;;;;;;;;;5140257;27;20130;-84
2023/10/31 06:14:27;;;;;;;0.73;0.50;;;;;;;;;;5096318;28;20077;-85
2023/10/31 06:16:54;;;;;;;0.52;0.52;;;;;;;;;;5105914;28;20040;-83
2023/10/31 06:19:20;;;;;;;0.77;0.40;;;;;;;;;;5110716;28;20043;-84
2023/10/31 06:21:46;;;;;;;2.42;0.68;;;;;;;;;;5096952;28;20035;-83
2023/10/31 06:24:12;;;;;;;0.77;0.40;;;;;;;;;;5096944;28;20031;-82
2023/10/31 06:26:39;;;;;;;1.23;0.45;;;;;;;;;;5116011;28;20039;-83
2023/10/31 06:29:05;;;;;;;3.08;1.02;;;;;;;;;;5099717;28;20051;-82
2023/10/31 06:31:31;;;;;;;0.85;0.70;;;;;;;;;;5116374;28;20035;-83
2023/10/31 06:33:57;;;;;;;1.08;0.60;;;;;;;;;;5117511;28;20042;-82
2023/10/31 06:36:23;;;;;;;1.30;0.70;;;;;;;;;;5116949;28;20050;-82
2023/10/31 06:38:49;;;;;;;3.05;0.80;;;;;;;;;;5117688;28;20506;-82
2023/10/31 06:41:15;;;;;;;2.03;0.68;;;;;;;;;;5119281;28;20044;-83
2023/10/31 06:43:41;;;;;;;1.10;0.80;;;;;;;;;;5118492;28;20501;-84
2023/10/31 06:46:07;;;;;;;1.35;0.70;;;;;;;;;;5113347;28;20079;-84
2023/10/31 06:48:33;;;;;;;2.45;0.60;;;;;;;;;;5115819;28;20040;-83
2023/10/31 06:50:59;;;;;;;1.48;0.70;;;;;;;;;;5113669;28;20075;-82
2023/10/31 06:53:25;;;;;;;1.77;0.85;;;;;;;;;;5120473;28;20521;-84
2023/10/31 06:55:51;;;;;;;1.05;0.68;;;;;;;;;;5103171;28;20036;-82
2023/10/31 06:58:17;;;;;;;2.47;1.00;;;;;;;;;;5119094;28;20048;-83
2023/10/31 07:00:43;;;;;;;1.55;1.08;;;;;;;;;;5117622;28;20051;-83
2023/10/31 07:03:14;;;;;;;1.20;1.10;;;;;;;;;;5110110;28;20401;-81
2023/10/31 07:05:40;;;;;;;3.85;1.60;;;;;;;;;;5115446;28;20059;-82
2023/10/31 07:08:06;;;;;;;2.13;1.77;;;;;;;;;;5115515;28;20027;-82
2023/10/31 07:10:33;;;;;;;2.42;1.30;;;;;;;;;;5118968;28;20486;-81
2023/10/31 07:12:59;;;;;;;4.93;2.15;;;;;;;;;;5116916;28;20052;-81
2023/10/31 07:15:28;;;;;;;3.15;1.55;;;;;;;;;;5110491;28;20043;-81
2023/10/31 07:17:54;;;;;;;1.50;1.38;;;;;;;;;;5112030;28;20047;-81
2023/10/31 07:20:20;;;;;;;2.22;1.35;;;;;;;;;;5110964;28;20130;-82
2023/10/31 07:22:46;;;;;;;2.22;1.65;;;;;;;;;;5117097;28;20035;-77
2023/10/31 07:25:12;;;;;;;2.38;1.70;;;;;;;;;;5114458;28;20031;-79
2023/10/31 07:27:38;;;;;;;2.58;1.60;;;;;;;;;;5113633;28;20462;-79
2023/10/31 07:30:06;;;;;;;2.63;1.90;;;;;;;;;;5098496;28;20038;-80
2023/10/31 07:32:32;;;;;;;1.83;1.63;;;;;;;;;;5116066;28;20031;-79
2023/10/31 07:34:58;;;;;;;2.55;1.88;;;;;;;;;;5116424;28;20051;-81
2023/10/31 07:37:24;;;;;;;2.58;1.55;;;;;;;;;;5115380;28;20039;-81
2023/10/31 07:39:53;;;;;;;4.40;2.05;;;;;;;;;;5097816;28;20035;-80
2023/10/31 07:42:19;;;;;;;3.15;2.30;;;;;;;;;;5108387;28;20525;-79
2023/10/31 07:44:45;;;;;;;6.15;1.85;;;;;;;;;;5112994;28;20035;-79
2023/10/31 07:47:11;;;;;;;2.95;2.00;;;;;;;;;;5111801;27;20486;-80
2023/10/31 07:49:37;;;;;;;3.08;2.00;;;;;;;;;;5112063;28;20155;-79
2023/10/31 07:52:03;;;;;;;2.88;2.00;;;;;;;;;;5111130;28;20139;-80
2023/10/31 07:54:29;;;;;;;3.88;1.63;;;;;;;;;;5114345;28;20046;-81
2023/10/31 07:56:55;;;;;;;2.25;1.80;;;;;;;;;;5112330;28;20047;-80
2023/10/31 07:59:21;;;;;;;2.90;1.52;;;;;;;;;;5114909;28;20054;-80
2023/10/31 08:01:48;;;;;;;2.22;1.70;;;;;;;;;;5114459;28;20044;-80
2023/10/31 08:04:16;;;;;;;3.83;1.65;;;;;;;;;;5115437;28;20098;-80
2023/10/31 08:06:42;;;;;;;2.90;1.90;;;;;;;;;;5115898;28;20482;-80
2023/10/31 08:09:08;;;;;;;1.42;1.33;;;;;;;;;;5115905;27;20047;-80
2023/10/31 08:11:35;;;;;;;2.22;1.35;;;;;;;;;;5111385;28;20040;-80
2023/10/31 08:14:01;;;;;;;3.92;1.00;;;;;;;;;;5113023;28;20047;-82
2023/10/31 08:16:28;;;;;;;1.80;1.00;;;;;;;;;;5117024;28;20581;-80
2023/10/31 08:18:54;;;;;;;1.85;0.90;;;;;;;;;;5119163;28;20044;-81
2023/10/31 08:21:20;;;;;;;2.13;0.90;;;;;;;;;;5102766;28;20089;-80
2023/10/31 08:23:46;;;;;;;1.70;0.80;;;;;;;;;;5123375;28;20036;-80
2023/10/31 08:26:12;;;;;;;1.38;0.68;;;;;;;;;;5098782;28;20044;-80
2023/10/31 08:28:38;;;;;;;3.92;0.90;;;;;;;;;;5117596;28;20036;-80
2023/10/31 08:31:04;;;;;;;1.90;0.85;;;;;;;;;;5115817;28;20109;-81
2023/10/31 08:33:30;;;;;;;1.10;0.90;;;;;;;;;;5120453;28;20058;-80
2023/10/31 08:35:56;;;;;;;3.75;0.98;;;;;;;;;;5117141;28;20065;-81
2023/10/31 08:38:22;;;;;;;3.63;0.90;;;;;;;;;;5122045;28;20047;-79
2023/10/31 08:40:49;;;;;;;3.05;0.98;;;;;;;;;;5108006;28;20443;-81
2023/10/31 08:43:15;;;;;;;2.53;1.10;;;;;;;;;;5122771;28;20054;-81
2023/10/31 08:45:41;;;;;;;2.03;0.77;;;;;;;;;;5119118;28;20039;-82
2023/10/31 08:48:07;;;;;;;2.72;0.80;;;;;;;;;;5118756;27;20031;-81
2023/10/31 08:50:33;;;;;;;3.88;0.73;;;;;;;;;;5117377;28;20034;-80
2023/10/31 08:53:02;;;;;;;0.90;0.60;;;;;;;;;;5116816;28;20059;-80
2023/10/31 08:55:28;;;;;;;1.90;0.57;;;;;;;;;;5112019;28;20039;-81
2023/10/31 08:57:54;;;;;;;1.52;0.43;;;;;;;;;;5112245;28;20048;-82
2023/10/31 09:00:20;;;;;;;3.25;0.52;;;;;;;;;;5113619;27;20039;-82
2023/10/31 09:02:47;;;;;;;2.35;0.47;;;;;;;;;;5119513;28;20526;-82
2023/10/31 09:05:13;;;;;;;0.95;0.55;;;;;;;;;;5108066;27;20044;-81
2023/10/31 09:07:40;;;;;;;0.85;0.40;;;;;;;;;;5114058;28;20381;-82
2023/10/31 09:10:06;;;;;;;1.02;0.40;;;;;;;;;;5092166;28;20045;-81
2023/10/31 09:12:32;;;;;;;1.88;0.57;;;;;;;;;;5094760;28;20065;-81
2023/10/31 09:14:58;;;;;;;1.00;0.30;;;;;;;;;;5109641;28;20039;-81
2023/10/31 09:17:24;;;;;;;2.38;0.35;;;;;;;;;;5115198;28;20039;-83
2023/10/31 09:19:50;;;;;;;0.50;0.32;;;;;;;;;;5099067;28;20043;-83
2023/10/31 09:22:16;;;;;;;3.30;0.47;;;;;;;;;;5116873;28;20036;-82
2023/10/31 09:24:43;;;;;;;1.35;0.40;;;;;;;;;;5115935;28;20036;-83
2023/10/31 09:27:10;;;;;;;0.80;0.30;;;;;;;;;;5114155;28;20100;-82
2023/10/31 09:29:36;;;;;;;1.50;0.30;;;;;;;;;;5111266;28;20035;-83
2023/10/31 09:32:03;;;;;;;1.13;0.60;;;;;;;;;;5096923;28;20050;-82
2023/10/31 09:34:29;;;;;;;4.22;0.40;;;;;;;;;;5116256;28;20039;-83
2023/10/31 09:36:55;;;;;;;1.85;0.40;;;;;;;;;;5115476;28;20448;-82
2023/10/31 09:39:22;;;;;;;1.95;0.57;;;;;;;;;;5117543;28;20074;-83
2023/10/31 09:41:49;;;;;;;0.20;0.10;;;;;;;;;;5115441;28;20486;-83
2023/10/31 09:44:15;;;;;;;0.75;0.28;;;;;;;;;;5115951;28;20477;-84
2023/10/31 09:46:41;;;;;;;0.20;0.20;;;;;;;;;;5115528;28;20032;-83
2023/10/31 09:49:08;;;;;;;2.28;0.40;;;;;;;;;;5115606;28;20039;-83
2023/10/31 09:51:34;;;;;;;1.05;0.30;;;;;;;;;;5115552;28;20043;-82
2023/10/31 09:54:03;;;;;;;1.63;0.30;;;;;;;;;;5117474;28;20043;-82
2023/10/31 09:56:34;;;;;;;0.73;0.32;;;;;;;;;;5116929;28;20100;-82
2023/10/31 09:59:03;;;;;;;0.30;0.10;;;;;;;;;;5115333;28;20047;-83
2023/10/31 10:01:29;;;;;;;0.73;0.20;;;;;;;;;;5116707;28;20436;-83
2023/10/31 10:03:55;;;;;;;0.93;0.10;;;;;;;;;;5113712;28;20050;-84
2023/10/31 10:06:23;;;;;;;0.65;0.13;;;;;;;;;;5109712;28;20035;-83
2023/10/31 10:08:49;;;;;;;0.63;0.10;;;;;;;;;;5114007;28;20048;-83
2023/10/31 10:11:15;;;;;;;0.80;0.20;;;;;;;;;;5112455;28;20046;-83
2023/10/31 10:13:41;;;;;;;0.70;0.20;;;;;;;;;;5112598;28;20040;-83
2023/10/31 10:16:08;;;;;;;1.70;0.20;;;;;;;;;;5114958;28;20046;-85
2023/10/31 10:18:37;;;;;;;0.15;0.10;;;;;;;;;;5099567;28;20108;-82
2023/10/31 10:21:04;;;;;;;1.35;0.25;;;;;;;;;;5112644;28;20509;-82
2023/10/31 10:23:31;;;;;;;1.45;0.35;;;;;;;;;;5113888;28;20071;-84
2023/10/31 10:25:57;;;;;;;0.50;0.30;;;;;;;;;;5115052;28;20035;-83
2023/10/31 10:28:24;;;;;;;0.55;0.20;;;;;;;;;;5116792;28;20064;-82
2023/10/31 10:30:50;;;;;;;0.25;0.20;;;;;;;;;;5115455;28;20036;-83
2023/10/31 10:33:17;;;;;;;0.90;0.22;;;;;;;;;;5097881;28;20043;-83
2023/10/31 10:35:43;;;;;;;0.43;0.22;;;;;;;;;;5091252;28;20043;-85
2023/10/31 10:38:16;;;;;;;1.83;0.38;;;;;;;;;;5105668;28;20039;-83
2023/10/31 10:40:43;;;;;;;1.25;0.22;;;;;;;;;;5098479;28;20031;-83
2023/10/31 10:43:28;;;;;;;0.40;0.10;;;;;;;;;;5115631;28;20099;-83
2023/10/31 10:45:58;;;;;;;1.65;0.10;;;;;;;;;;5095076;28;20532;-83
2023/10/31 10:48:27;;;;;;;0.82;0.20;;;;;;;;;;5114982;28;20046;-83
2023/10/31 10:51:05;;;;;;;0.60;0.17;;;;;;;;;;5112019;28;20511;-83
2023/10/31 10:53:35;;;;;;;1.27;0.40;;;;;;;;;;5113966;28;20048;-83
2023/10/31 10:56:04;;;;;;;0.90;0.50;;;;;;;;;;5113877;28;20055;-83
2023/10/31 10:58:52;;;;;;;3.13;0.43;;;;;;;;;;5113403;28;20394;-83
2023/10/31 11:01:20;;;;;;;0.95;0.30;;;;;;;;;;5113364;28;20097;-83
2023/10/31 11:03:46;;;;;;;1.70;0.50;;;;;;;;;;5114827;28;20044;-83
2023/10/31 11:06:13;;;;;;;3.97;0.73;;;;;;;;;;5115934;28;20483;-83
2023/10/31 11:08:40;;;;;;;3.50;0.50;;;;;;;;;;5116304;28;20085;-83
2023/10/31 11:11:06;;;;;;;1.52;0.75;;;;;;;;;;5114355;28;20160;-83
2023/10/31 11:13:32;;;;;;;2.20;0.55;;;;;;;;;;5112759;28;20048;-83
2023/10/31 11:16:02;;;;;;;1.60;0.30;;;;;;;;;;5114802;28;20134;-81
2023/10/31 11:18:28;;;;;;;1.95;0.20;;;;;;;;;;5104334;28;20040;-80
2023/10/31 11:20:55;;;;;;;1.30;0.30;;;;;;;;;;5109562;28;20429;-81
2023/10/31 11:23:21;;;;;;;1.75;0.30;;;;;;;;;;5108954;28;20494;-80
2023/10/31 11:25:50;;;;;;;3.15;0.20;;;;;;;;;;5114414;28;20039;-81
2023/10/31 11:28:17;;;;;;;1.52;0.30;;;;;;;;;;5114847;28;20490;-80
2023/10/31 11:30:44;;;;;;;2.05;0.20;;;;;;;;;;5117162;28;20126;-80
2023/10/31 11:33:13;;;;;;;1.05;0.22;;;;;;;;;;5112274;28;20044;-81
2023/10/31 11:35:40;;;;;;;2.00;0.30;;;;;;;;;;5096419;28;20040;-82
2023/10/31 11:38:07;;;;;;;0.82;0.20;;;;;;;;;;5117616;28;20074;-82
2023/10/31 11:40:33;;;;;;;0.70;0.30;;;;;;;;;;5116135;28;20039;-81
2023/10/31 11:43:02;;;;;;;0.57;0.10;;;;;;;;;;5115542;28;20054;-82
2023/10/31 11:45:29;;;;;;;0.70;0.20;;;;;;;;;;5121422;28;20043;-83
2023/10/31 11:47:55;;;;;;;0.25;0.20;;;;;;;;;;5115613;28;20458;-81
2023/10/31 11:50:21;;;;;;;1.42;0.30;;;;;;;;;;5120532;28;20047;-83
2023/10/31 11:52:58;;;;;;;0.55;0.40;;;;;;;;;;5120170;27;20095;-81
2023/10/31 11:55:25;;;;;;;0.10;0.10;;;;;;;;;;5119981;28;20046;-82
2023/10/31 11:57:51;;;;;;;0.55;0.20;;;;;;;;;;5122152;28;20135;-81
2023/10/31 12:00:24;;;;;;;1.65;0.28;;;;;;;;;;5120920;28;20047;-81
2023/10/31 12:02:59;;;;;;;0.95;0.22;;;;;;;;;;5122922;28;20384;-81
2023/10/31 12:05:26;;;;;;;0.50;0.10;;;;;;;;;;5122129;28;20120;-80
2023/10/31 12:07:52;;;;;;;1.10;0.45;;;;;;;;;;5117318;28;20067;-80
2023/10/31 12:10:24;;;;;;;1.05;0.70;;;;;;;;;;5121569;28;20039;-80
2023/10/31 12:12:51;;;;;;;2.70;0.40;;;;;;;;;;5118540;28;20042;-80
2023/10/31 12:15:20;;;;;;;1.95;0.52;;;;;;;;;;5114114;28;20051;-80
2023/10/31 12:17:46;;;;;;;2.80;0.40;;;;;;;;;;5095829;28;20050;-82
2023/10/31 12:20:12;;;;;;;1.25;0.32;;;;;;;;;;5118211;28;20082;-83
2023/10/31 12:22:40;;;;;;;0.60;0.57;;;;;;;;;;5121558;28;20108;-83
2023/10/31 12:25:09;;;;;;;1.35;0.63;;;;;;;;;;5124387;28;20452;-81
2023/10/31 12:27:46;;;;;;;4.95;2.65;;;;;;;;;;5121795;28;20036;-81
2023/10/31 12:30:13;;;;;;;1.20;0.90;;;;;;;;;;5130906;28;20044;-81
2023/10/31 12:32:41;;;;;;;1.48;1.00;;;;;;;;;;5131058;28;20091;-79
2023/10/31 12:35:07;;;;;;;2.33;0.75;;;;;;;;;;5152838;27;20039;-80
2023/10/31 12:37:33;;;;;;;2.03;0.73;;;;;;;;;;5113235;28;20479;-81
2023/10/31 12:40:03;;;;;;;1.15;0.60;;;;;;;;;;5109076;28;20040;-81
2023/10/31 12:42:31;;;;;;;2.70;0.50;;;;;;;;;;5112682;28;20043;-80
2023/10/31 12:44:59;;;;;;;1.08;0.35;;;;;;;;;;5112694;28;20043;-82
2023/10/31 12:47:25;;;;;;;1.02;0.30;;;;;;;;;;5094990;28;20093;-82
2023/10/31 12:50:09;;;;;;;1.48;0.65;;;;;;;;;;5119289;28;20039;-83
2023/10/31 12:52:50;;;;;;;1.27;0.22;;;;;;;;;;5117302;28;20035;-86
2023/10/31 12:55:17;;;;;;;1.08;0.30;;;;;;;;;;5116259;28;20032;-83
2023/10/31 12:57:43;;;;;;;0.20;0.10;;;;;;;;;;5119364;28;20502;-83
2023/10/31 13:00:12;;;;;;;0.38;0.30;;;;;;;;;;5117471;28;20047;-83
2023/10/31 13:02:39;;;;;;;1.08;0.30;;;;;;;;;;5114616;28;20626;-83
2023/10/31 13:05:26;;;;;;;0.77;0.25;;;;;;;;;;5099931;28;20067;-83
2023/10/31 13:07:52;;;;;;;0.77;0.35;;;;;;;;;;5116087;28;20036;-83
2023/10/31 13:10:25;;;;;;;0.25;0.20;;;;;;;;;;5101561;28;20032;-83
2023/10/31 13:12:52;;;;;;;1.15;0.40;;;;;;;;;;5118544;28;20103;-83
2023/10/31 13:15:19;;;;;;;1.15;0.50;;;;;;;;;;5116708;28;20039;-83
2023/10/31 13:17:45;;;;;;;1.52;0.50;;;;;;;;;;5115498;28;20046;-83
2023/10/31 13:20:12;;;;;;;3.10;0.47;;;;;;;;;;5117801;28;20131;-83
2023/10/31 13:22:39;;;;;;;1.20;0.20;;;;;;;;;;5115475;28;20070;-83
2023/10/31 13:25:07;;;;;;;1.08;0.25;;;;;;;;;;5116931;28;20073;-83
2023/10/31 13:27:35;;;;;;;1.48;0.40;;;;;;;;;;5116548;28;20375;-83
2023/10/31 13:30:01;;;;;;;1.20;0.50;;;;;;;;;;5115801;28;20118;-83
2023/10/31 13:32:27;;;;;;;0.70;0.30;;;;;;;;;;5097029;28;20044;-84
2023/10/31 13:34:53;;;;;;;0.17;0.10;;;;;;;;;;5115137;28;20051;-82
2023/10/31 13:37:20;;;;;;;2.75;0.47;;;;;;;;;;5116940;28;20056;-83
2023/10/31 13:39:46;;;;;;;1.17;0.20;;;;;;;;;;5116750;28;20044;-82
2023/10/31 13:42:14;;;;;;;1.75;1.45;;;;;;;;;;5113136;28;20035;-82
2023/10/31 13:44:40;;;;;;;1.83;0.70;;;;;;;;;;5118119;28;20048;-82
2023/10/31 13:47:06;;;;;;;1.63;0.28;;;;;;;;;;5094159;28;20084;-83
2023/10/31 13:49:32;;;;;;;1.75;0.30;;;;;;;;;;5114380;28;20475;-83
2023/10/31 13:51:58;;;;;;;0.73;0.20;;;;;;;;;;5115236;27;20048;-82
2023/10/31 13:54:24;;;;;;;1.38;0.50;;;;;;;;;;5118832;27;20035;-82
2023/10/31 13:56:50;;;;;;;2.67;0.40;;;;;;;;;;5117191;28;20051;-82
2023/10/31 13:59:18;;;;;;;2.45;0.40;;;;;;;;;;5118300;28;20043;-82
2023/10/31 14:01:45;;;;;;;3.55;0.80;;;;;;;;;;5111026;28;20051;-82
2023/10/31 14:04:15;;;;;;;0.85;0.43;;;;;;;;;;5096936;28;20390;-81
2023/10/31 14:06:41;;;;;;;2.55;0.60;;;;;;;;;;5112881;28;20036;-86
2023/10/31 14:09:08;;;;;;;1.10;0.43;;;;;;;;;;5093385;28;20063;-82
2023/10/31 14:11:34;;;;;;;1.08;0.40;;;;;;;;;;5116721;28;20077;-82
2023/10/31 14:14:06;;;;;;;2.35;0.30;;;;;;;;;;5116952;28;20044;-82
2023/10/31 14:16:32;;;;;;;0.60;0.40;;;;;;;;;;5116060;28;20097;-82
2023/10/31 14:18:58;;;;;;;0.90;0.43;;;;;;;;;;5118033;28;20758;-82
2023/10/31 14:21:25;;;;;;;0.90;0.65;;;;;;;;;;5118292;28;20043;-82
2023/10/31 14:23:55;;;;;;;1.83;0.40;;;;;;;;;;5116874;28;20040;-82
2023/10/31 14:26:21;;;;;;;1.67;0.40;;;;;;;;;;5118981;28;20143;-82
2023/10/31 14:28:47;;;;;;;0.68;0.40;;;;;;;;;;5099501;28;20040;-82
2023/10/31 14:31:14;;;;;;;0.68;0.30;;;;;;;;;;5098708;28;20058;-82
2023/10/31 14:33:40;;;;;;;0.85;0.25;;;;;;;;;;5100559;28;20479;-82
2023/10/31 14:36:07;;;;;;;0.70;0.20;;;;;;;;;;5118652;28;20058;-82
2023/10/31 14:38:33;;;;;;;1.40;0.55;;;;;;;;;;5117844;28;20063;-82
2023/10/31 14:40:59;;;;;;;1.95;0.20;;;;;;;;;;5116054;28;20046;-82